sensor_id;sensor_type;location;lat;lon;timestamp;P1;durP1;ratioP1;P2;durP2;ratioP2
14394;SDS011;7282;49.204;10.652;2023-02-28T00:00:34;5.25;;;4.53;;
14394;SDS011;7282;49.204;10.652;2023-02-28T00:03:01;5.08;;;4.20;;
14394;SDS011;7282;49.204;10.652;2023-02-28T00:05:28;8.93;;;4.50;;
14394;SDS011;7282;49.204;10.652;2023-02-28T00:07:55;5.70;;;4.35;;
14394;SDS011;7282;49.204;10.652;2023-02-28T00:10:23;5.28;;;4.42;;
14394;SDS011;7282;49.204;10.652;2023-02-28T00:12:50;5.12;;;4.47;;
14394;SDS011;7282;49.204;10.652;2023-02-28T00:15:18;5.17;;;4.67;;
14394;SDS011;7282;49.204;10.652;2023-02-28T00:17:44;8.95;;;4.72;;
14394;SDS011;7282;49.204;10.652;2023-02-28T00:20:11;8.20;;;4.50;;
14394;SDS011;7282;49.204;10.652;2023-02-28T00:22:39;6.58;;;4.50;;
14394;SDS011;7282;49.204;10.652;2023-02-28T00:25:06;5.67;;;4.50;;
14394;SDS011;7282;49.204;10.652;2023-02-28T00:27:34;8.03;;;5.15;;
14394;SDS011;7282;49.204;10.652;2023-02-28T00:30:01;6.17;;;5.00;;
14394;SDS011;7282;49.204;10.652;2023-02-28T00:32:28;8.15;;;5.30;;
14394;SDS011;7282;49.204;10.652;2023-02-28T00:34:55;5.85;;;4.58;;
14394;SDS011;7282;49.204;10.652;2023-02-28T00:37:22;5.70;;;5.10;;
14394;SDS011;7282;49.204;10.652;2023-02-28T00:39:49;7.60;;;5.03;;
14394;SDS011;7282;49.204;10.652;2023-02-28T00:42:15;5.40;;;4.90;;
14394;SDS011;7282;49.204;10.652;2023-02-28T00:44:42;6.47;;;4.85;;
14394;SDS011;7282;49.204;10.652;2023-02-28T00:47:09;5.90;;;4.95;;
14394;SDS011;7282;49.204;10.652;2023-02-28T00:49:36;5.80;;;4.83;;
14394;SDS011;7282;49.204;10.652;2023-02-28T00:52:03;5.97;;;5.12;;
14394;SDS011;7282;49.204;10.652;2023-02-28T00:54:29;6.60;;;5.15;;
14394;SDS011;7282;49.204;10.652;2023-02-28T00:56:56;7.10;;;4.45;;
14394;SDS011;7282;49.204;10.652;2023-02-28T00:59:23;6.55;;;4.78;;
14394;SDS011;7282;49.204;10.652;2023-02-28T01:01:49;5.95;;;5.05;;
14394;SDS011;7282;49.204;10.652;2023-02-28T01:04:16;5.92;;;5.33;;
14394;SDS011;7282;49.204;10.652;2023-02-28T01:06:43;6.78;;;5.85;;
14394;SDS011;7282;49.204;10.652;2023-02-28T01:09:10;5.83;;;4.92;;
14394;SDS011;7282;49.204;10.652;2023-02-28T01:11:37;5.92;;;5.33;;
14394;SDS011;7282;49.204;10.652;2023-02-28T01:14:04;7.25;;;5.37;;
14394;SDS011;7282;49.204;10.652;2023-02-28T01:16:30;5.37;;;4.70;;
14394;SDS011;7282;49.204;10.652;2023-02-28T01:18:57;5.90;;;4.62;;
14394;SDS011;7282;49.204;10.652;2023-02-28T01:21:24;5.97;;;4.92;;
14394;SDS011;7282;49.204;10.652;2023-02-28T01:23:51;5.30;;;4.80;;
14394;SDS011;7282;49.204;10.652;2023-02-28T01:26:19;7.97;;;4.97;;
14394;SDS011;7282;49.204;10.652;2023-02-28T01:28:46;6.28;;;5.25;;
14394;SDS011;7282;49.204;10.652;2023-02-28T01:31:13;5.97;;;5.37;;
14394;SDS011;7282;49.204;10.652;2023-02-28T01:33:40;5.85;;;4.85;;
14394;SDS011;7282;49.204;10.652;2023-02-28T01:36:08;6.30;;;5.45;;
14394;SDS011;7282;49.204;10.652;2023-02-28T01:38:35;6.33;;;5.15;;
14394;SDS011;7282;49.204;10.652;2023-02-28T01:41:02;6.90;;;5.55;;
14394;SDS011;7282;49.204;10.652;2023-02-28T01:45:58;6.28;;;5.45;;
14394;SDS011;7282;49.204;10.652;2023-02-28T01:48:26;7.37;;;6.58;;
14394;SDS011;7282;49.204;10.652;2023-02-28T01:50:54;6.53;;;5.75;;
14394;SDS011;7282;49.204;10.652;2023-02-28T01:53:22;7.42;;;5.53;;
14394;SDS011;7282;49.204;10.652;2023-02-28T01:55:50;7.17;;;5.95;;
14394;SDS011;7282;49.204;10.652;2023-02-28T01:58:17;6.75;;;6.08;;
14394;SDS011;7282;49.204;10.652;2023-02-28T02:00:44;8.28;;;5.85;;
14394;SDS011;7282;49.204;10.652;2023-02-28T02:03:13;6.33;;;5.72;;
14394;SDS011;7282;49.204;10.652;2023-02-28T02:05:41;6.17;;;5.58;;
14394;SDS011;7282;49.204;10.652;2023-02-28T02:08:23;6.78;;;5.92;;
14394;SDS011;7282;49.204;10.652;2023-02-28T02:10:51;6.60;;;5.72;;
14394;SDS011;7282;49.204;10.652;2023-02-28T02:16:10;7.37;;;6.62;;
14394;SDS011;7282;49.204;10.652;2023-02-28T02:18:40;7.62;;;5.95;;
14394;SDS011;7282;49.204;10.652;2023-02-28T02:21:14;6.65;;;5.95;;
14394;SDS011;7282;49.204;10.652;2023-02-28T02:34:08;7.47;;;6.40;;
14394;SDS011;7282;49.204;10.652;2023-02-28T02:36:35;7.33;;;5.78;;
14394;SDS011;7282;49.204;10.652;2023-02-28T02:41:38;7.28;;;6.58;;
14394;SDS011;7282;49.204;10.652;2023-02-28T02:44:13;7.47;;;5.78;;
14394;SDS011;7282;49.204;10.652;2023-02-28T02:46:44;6.50;;;5.62;;
14394;SDS011;7282;49.204;10.652;2023-02-28T02:49:09;7.62;;;6.67;;
14394;SDS011;7282;49.204;10.652;2023-02-28T02:51:36;10.25;;;6.53;;
14394;SDS011;7282;49.204;10.652;2023-02-28T02:54:08;7.50;;;6.00;;
14394;SDS011;7282;49.204;10.652;2023-02-28T02:56:36;10.30;;;6.20;;
14394;SDS011;7282;49.204;10.652;2023-02-28T02:59:04;7.67;;;5.97;;
14394;SDS011;7282;49.204;10.652;2023-02-28T03:01:32;6.50;;;5.62;;
14394;SDS011;7282;49.204;10.652;2023-02-28T03:04:01;7.95;;;5.80;;
14394;SDS011;7282;49.204;10.652;2023-02-28T03:06:28;11.12;;;6.70;;
14394;SDS011;7282;49.204;10.652;2023-02-28T03:08:55;5.95;;;5.35;;
14394;SDS011;7282;49.204;10.652;2023-02-28T03:11:22;7.00;;;6.22;;
14394;SDS011;7282;49.204;10.652;2023-02-28T03:13:52;7.67;;;5.97;;
14394;SDS011;7282;49.204;10.652;2023-02-28T03:16:28;9.60;;;6.45;;
14394;SDS011;7282;49.204;10.652;2023-02-28T03:18:54;8.35;;;6.20;;
14394;SDS011;7282;49.204;10.652;2023-02-28T03:23:58;8.33;;;6.17;;
14394;SDS011;7282;49.204;10.652;2023-02-28T03:26:24;7.53;;;6.72;;
14394;SDS011;7282;49.204;10.652;2023-02-28T03:28:55;8.20;;;6.53;;
14394;SDS011;7282;49.204;10.652;2023-02-28T03:31:22;7.80;;;6.72;;
14394;SDS011;7282;49.204;10.652;2023-02-28T03:34:24;9.73;;;6.67;;
14394;SDS011;7282;49.204;10.652;2023-02-28T03:36:25;8.50;;;6.17;;
14394;SDS011;7282;49.204;10.652;2023-02-28T03:41:30;8.23;;;6.83;;
14394;SDS011;7282;49.204;10.652;2023-02-28T03:43:57;8.95;;;6.53;;
14394;SDS011;7282;49.204;10.652;2023-02-28T03:46:25;8.98;;;6.50;;
14394;SDS011;7282;49.204;10.652;2023-02-28T03:49:55;9.88;;;6.65;;
14394;SDS011;7282;49.204;10.652;2023-02-28T03:51:30;9.93;;;6.65;;
14394;SDS011;7282;49.204;10.652;2023-02-28T03:53:59;12.58;;;6.90;;
14394;SDS011;7282;49.204;10.652;2023-02-28T03:56:28;8.08;;;6.75;;
14394;SDS011;7282;49.204;10.652;2023-02-28T03:58:57;8.58;;;6.87;;
14394;SDS011;7282;49.204;10.652;2023-02-28T04:01:35;9.53;;;6.58;;
14394;SDS011;7282;49.204;10.652;2023-02-28T04:03:52;8.33;;;6.72;;
14394;SDS011;7282;49.204;10.652;2023-02-28T04:06:20;8.23;;;6.62;;
14394;SDS011;7282;49.204;10.652;2023-02-28T04:08:47;7.55;;;6.22;;
14394;SDS011;7282;49.204;10.652;2023-02-28T04:11:33;8.30;;;6.30;;
14394;SDS011;7282;49.204;10.652;2023-02-28T04:14:01;7.53;;;6.50;;
14394;SDS011;7282;49.204;10.652;2023-02-28T04:16:29;10.20;;;7.30;;
14394;SDS011;7282;49.204;10.652;2023-02-28T04:18:56;9.33;;;7.42;;
14394;SDS011;7282;49.204;10.652;2023-02-28T04:21:24;8.63;;;7.17;;
14394;SDS011;7282;49.204;10.652;2023-02-28T04:23:51;8.93;;;6.97;;
14394;SDS011;7282;49.204;10.652;2023-02-28T04:26:18;8.85;;;6.62;;
14394;SDS011;7282;49.204;10.652;2023-02-28T04:28:44;8.68;;;6.85;;
14394;SDS011;7282;49.204;10.652;2023-02-28T04:31:11;8.55;;;7.20;;
14394;SDS011;7282;49.204;10.652;2023-02-28T04:33:38;9.53;;;6.87;;
14394;SDS011;7282;49.204;10.652;2023-02-28T04:36:07;9.53;;;7.08;;
14394;SDS011;7282;49.204;10.652;2023-02-28T04:38:37;8.33;;;6.55;;
14394;SDS011;7282;49.204;10.652;2023-02-28T04:41:04;9.03;;;7.35;;
14394;SDS011;7282;49.204;10.652;2023-02-28T04:43:31;10.45;;;7.33;;
14394;SDS011;7282;49.204;10.652;2023-02-28T04:46:00;9.20;;;6.70;;
14394;SDS011;7282;49.204;10.652;2023-02-28T04:48:29;11.28;;;7.70;;
14394;SDS011;7282;49.204;10.652;2023-02-28T04:51:00;12.13;;;8.10;;
14394;SDS011;7282;49.204;10.652;2023-02-28T04:53:28;10.28;;;7.65;;
14394;SDS011;7282;49.204;10.652;2023-02-28T04:55:55;9.30;;;7.50;;
14394;SDS011;7282;49.204;10.652;2023-02-28T04:58:22;10.70;;;7.70;;
14394;SDS011;7282;49.204;10.652;2023-02-28T05:00:51;10.28;;;7.92;;
14394;SDS011;7282;49.204;10.652;2023-02-28T05:03:18;10.43;;;8.15;;
14394;SDS011;7282;49.204;10.652;2023-02-28T05:05:46;10.50;;;9.05;;
14394;SDS011;7282;49.204;10.652;2023-02-28T05:08:13;12.82;;;8.73;;
14394;SDS011;7282;49.204;10.652;2023-02-28T05:10:40;11.05;;;8.45;;
14394;SDS011;7282;49.204;10.652;2023-02-28T05:13:06;10.38;;;8.10;;
14394;SDS011;7282;49.204;10.652;2023-02-28T05:15:33;12.05;;;8.45;;
14394;SDS011;7282;49.204;10.652;2023-02-28T05:18:00;11.97;;;9.08;;
14394;SDS011;7282;49.204;10.652;2023-02-28T05:20:26;9.60;;;7.87;;
14394;SDS011;7282;49.204;10.652;2023-02-28T05:22:53;11.12;;;8.10;;
14394;SDS011;7282;49.204;10.652;2023-02-28T05:25:22;11.85;;;8.68;;
14394;SDS011;7282;49.204;10.652;2023-02-28T05:27:48;9.40;;;8.15;;
14394;SDS011;7282;49.204;10.652;2023-02-28T05:30:15;9.75;;;8.00;;
14394;SDS011;7282;49.204;10.652;2023-02-28T05:32:42;11.12;;;8.38;;
14394;SDS011;7282;49.204;10.652;2023-02-28T05:35:13;10.45;;;8.50;;
14394;SDS011;7282;49.204;10.652;2023-02-28T05:37:38;10.95;;;8.25;;
14394;SDS011;7282;49.204;10.652;2023-02-28T05:40:05;11.53;;;8.60;;
14394;SDS011;7282;49.204;10.652;2023-02-28T05:42:33;13.35;;;8.75;;
14394;SDS011;7282;49.204;10.652;2023-02-28T05:45:00;12.00;;;8.95;;
14394;SDS011;7282;49.204;10.652;2023-02-28T05:47:26;13.35;;;9.35;;
14394;SDS011;7282;49.204;10.652;2023-02-28T05:49:53;13.40;;;8.75;;
14394;SDS011;7282;49.204;10.652;2023-02-28T05:52:20;11.63;;;9.15;;
14394;SDS011;7282;49.204;10.652;2023-02-28T05:54:46;11.93;;;9.43;;
14394;SDS011;7282;49.204;10.652;2023-02-28T05:57:14;12.68;;;8.78;;
14394;SDS011;7282;49.204;10.652;2023-02-28T05:59:41;12.07;;;9.68;;
14394;SDS011;7282;49.204;10.652;2023-02-28T06:02:12;11.68;;;9.05;;
14394;SDS011;7282;49.204;10.652;2023-02-28T06:04:39;12.53;;;9.53;;
14394;SDS011;7282;49.204;10.652;2023-02-28T06:07:07;12.28;;;9.23;;
14394;SDS011;7282;49.204;10.652;2023-02-28T06:09:34;12.07;;;9.55;;
14394;SDS011;7282;49.204;10.652;2023-02-28T06:12:02;14.98;;;9.98;;
14394;SDS011;7282;49.204;10.652;2023-02-28T06:14:31;11.57;;;8.95;;
14394;SDS011;7282;49.204;10.652;2023-02-28T06:16:59;12.35;;;9.15;;
14394;SDS011;7282;49.204;10.652;2023-02-28T06:19:26;15.72;;;9.98;;
14394;SDS011;7282;49.204;10.652;2023-02-28T06:21:53;12.20;;;9.23;;
14394;SDS011;7282;49.204;10.652;2023-02-28T06:24:21;13.65;;;9.70;;
14394;SDS011;7282;49.204;10.652;2023-02-28T06:26:48;14.05;;;10.03;;
14394;SDS011;7282;49.204;10.652;2023-02-28T06:29:15;12.07;;;9.53;;
14394;SDS011;7282;49.204;10.652;2023-02-28T06:31:43;12.47;;;9.05;;
14394;SDS011;7282;49.204;10.652;2023-02-28T06:34:10;10.05;;;9.05;;
14394;SDS011;7282;49.204;10.652;2023-02-28T06:36:40;14.25;;;9.78;;
14394;SDS011;7282;49.204;10.652;2023-02-28T06:39:07;12.75;;;9.25;;
14394;SDS011;7282;49.204;10.652;2023-02-28T06:41:35;11.45;;;9.35;;
14394;SDS011;7282;49.204;10.652;2023-02-28T06:44:11;12.80;;;9.53;;
14394;SDS011;7282;49.204;10.652;2023-02-28T06:46:34;12.18;;;9.28;;
14394;SDS011;7282;49.204;10.652;2023-02-28T06:49:01;12.60;;;10.05;;
14394;SDS011;7282;49.204;10.652;2023-02-28T06:51:28;12.70;;;9.73;;
14394;SDS011;7282;49.204;10.652;2023-02-28T06:53:55;12.88;;;9.65;;
14394;SDS011;7282;49.204;10.652;2023-02-28T06:56:22;12.30;;;9.60;;
14394;SDS011;7282;49.204;10.652;2023-02-28T06:58:49;12.50;;;8.93;;
14394;SDS011;7282;49.204;10.652;2023-02-28T07:01:17;15.13;;;9.38;;
14394;SDS011;7282;49.204;10.652;2023-02-28T07:03:45;13.13;;;9.83;;
14394;SDS011;7282;49.204;10.652;2023-02-28T07:06:12;12.43;;;9.63;;
14394;SDS011;7282;49.204;10.652;2023-02-28T07:08:38;16.12;;;9.68;;
14394;SDS011;7282;49.204;10.652;2023-02-28T07:11:07;12.28;;;9.50;;
14394;SDS011;7282;49.204;10.652;2023-02-28T07:13:33;12.47;;;9.40;;
14394;SDS011;7282;49.204;10.652;2023-02-28T07:16:01;11.45;;;10.25;;
14394;SDS011;7282;49.204;10.652;2023-02-28T07:18:28;13.55;;;9.60;;
14394;SDS011;7282;49.204;10.652;2023-02-28T07:20:55;13.25;;;9.60;;
14394;SDS011;7282;49.204;10.652;2023-02-28T07:23:22;10.55;;;8.70;;
14394;SDS011;7282;49.204;10.652;2023-02-28T07:25:49;11.95;;;9.55;;
14394;SDS011;7282;49.204;10.652;2023-02-28T07:28:16;12.98;;;9.38;;
14394;SDS011;7282;49.204;10.652;2023-02-28T07:30:43;11.93;;;10.00;;
14394;SDS011;7282;49.204;10.652;2023-02-28T07:33:09;12.98;;;9.95;;
14394;SDS011;7282;49.204;10.652;2023-02-28T07:35:36;14.07;;;9.85;;
14394;SDS011;7282;49.204;10.652;2023-02-28T07:38:03;11.25;;;9.58;;
14394;SDS011;7282;49.204;10.652;2023-02-28T07:40:30;13.13;;;10.20;;
14394;SDS011;7282;49.204;10.652;2023-02-28T07:42:58;11.68;;;9.10;;
14394;SDS011;7282;49.204;10.652;2023-02-28T07:45:25;12.45;;;9.48;;
14394;SDS011;7282;49.204;10.652;2023-02-28T07:47:51;12.20;;;9.78;;
14394;SDS011;7282;49.204;10.652;2023-02-28T07:50:18;12.05;;;9.68;;
14394;SDS011;7282;49.204;10.652;2023-02-28T07:52:45;12.70;;;9.70;;
14394;SDS011;7282;49.204;10.652;2023-02-28T07:55:11;13.40;;;9.30;;
14394;SDS011;7282;49.204;10.652;2023-02-28T07:57:40;11.43;;;9.80;;
14394;SDS011;7282;49.204;10.652;2023-02-28T08:00:07;11.33;;;9.50;;
14394;SDS011;7282;49.204;10.652;2023-02-28T08:02:35;12.70;;;9.28;;
14394;SDS011;7282;49.204;10.652;2023-02-28T08:05:02;13.10;;;9.60;;
14394;SDS011;7282;49.204;10.652;2023-02-28T08:07:29;13.60;;;9.23;;
14394;SDS011;7282;49.204;10.652;2023-02-28T08:09:56;10.93;;;8.83;;
14394;SDS011;7282;49.204;10.652;2023-02-28T08:12:22;11.80;;;9.20;;
14394;SDS011;7282;49.204;10.652;2023-02-28T08:14:49;13.15;;;9.60;;
14394;SDS011;7282;49.204;10.652;2023-02-28T08:17:16;13.10;;;9.58;;
14394;SDS011;7282;49.204;10.652;2023-02-28T08:19:44;12.78;;;9.65;;
14394;SDS011;7282;49.204;10.652;2023-02-28T08:22:11;10.13;;;8.80;;
14394;SDS011;7282;49.204;10.652;2023-02-28T08:24:38;13.83;;;9.53;;
14394;SDS011;7282;49.204;10.652;2023-02-28T08:27:05;12.13;;;9.33;;
14394;SDS011;7282;49.204;10.652;2023-02-28T08:29:31;11.87;;;8.97;;
14394;SDS011;7282;49.204;10.652;2023-02-28T08:31:58;12.53;;;9.83;;
14394;SDS011;7282;49.204;10.652;2023-02-28T08:34:25;13.33;;;9.57;;
14394;SDS011;7282;49.204;10.652;2023-02-28T08:36:51;11.33;;;9.43;;
14394;SDS011;7282;49.204;10.652;2023-02-28T08:39:19;14.13;;;9.80;;
14394;SDS011;7282;49.204;10.652;2023-02-28T08:41:46;10.93;;;9.27;;
14394;SDS011;7282;49.204;10.652;2023-02-28T08:44:12;12.10;;;9.03;;
14394;SDS011;7282;49.204;10.652;2023-02-28T08:46:39;11.67;;;8.83;;
14394;SDS011;7282;49.204;10.652;2023-02-28T08:49:06;13.43;;;9.60;;
14394;SDS011;7282;49.204;10.652;2023-02-28T08:51:33;13.43;;;9.37;;
14394;SDS011;7282;49.204;10.652;2023-02-28T08:54:00;13.27;;;9.70;;
14394;SDS011;7282;49.204;10.652;2023-02-28T08:56:27;10.63;;;9.10;;
14394;SDS011;7282;49.204;10.652;2023-02-28T08:58:54;11.37;;;9.00;;
14394;SDS011;7282;49.204;10.652;2023-02-28T09:01:26;12.30;;;9.00;;
14394;SDS011;7282;49.204;10.652;2023-02-28T09:03:50;10.33;;;8.27;;
14394;SDS011;7282;49.204;10.652;2023-02-28T09:06:17;14.57;;;9.13;;
14394;SDS011;7282;49.204;10.652;2023-02-28T09:08:44;12.63;;;8.80;;
14394;SDS011;7282;49.204;10.652;2023-02-28T09:11:11;16.57;;;9.53;;
14394;SDS011;7282;49.204;10.652;2023-02-28T09:13:38;11.60;;;9.00;;
14394;SDS011;7282;49.204;10.652;2023-02-28T09:16:06;11.00;;;8.90;;
14394;SDS011;7282;49.204;10.652;2023-02-28T09:18:33;17.93;;;9.10;;
14394;SDS011;7282;49.204;10.652;2023-02-28T09:21:02;12.10;;;8.93;;
14394;SDS011;7282;49.204;10.652;2023-02-28T09:23:29;10.83;;;9.70;;
14394;SDS011;7282;49.204;10.652;2023-02-28T09:25:56;10.97;;;8.90;;
14394;SDS011;7282;49.204;10.652;2023-02-28T09:28:22;13.03;;;8.93;;
14394;SDS011;7282;49.204;10.652;2023-02-28T09:30:50;15.90;;;9.17;;
14394;SDS011;7282;49.204;10.652;2023-02-28T09:33:17;14.03;;;9.30;;
14394;SDS011;7282;49.204;10.652;2023-02-28T09:35:52;12.80;;;8.70;;
14394;SDS011;7282;49.204;10.652;2023-02-28T09:38:15;10.97;;;8.33;;
14394;SDS011;7282;49.204;10.652;2023-02-28T09:40:52;10.17;;;8.40;;
14394;SDS011;7282;49.204;10.652;2023-02-28T09:43:10;13.50;;;8.50;;
14394;SDS011;7282;49.204;10.652;2023-02-28T09:45:39;11.50;;;8.93;;
14394;SDS011;7282;49.204;10.652;2023-02-28T09:48:11;11.00;;;8.80;;
14394;SDS011;7282;49.204;10.652;2023-02-28T09:50:40;10.27;;;8.43;;
14394;SDS011;7282;49.204;10.652;2023-02-28T09:53:16;9.57;;;8.57;;
14394;SDS011;7282;49.204;10.652;2023-02-28T09:55:39;12.20;;;8.43;;
14394;SDS011;7282;49.204;10.652;2023-02-28T09:58:55;18.83;;;9.70;;
14394;SDS011;7282;49.204;10.652;2023-02-28T10:00:37;10.67;;;9.53;;
14394;SDS011;7282;49.204;10.652;2023-02-28T10:03:19;12.23;;;9.00;;
14394;SDS011;7282;49.204;10.652;2023-02-28T10:05:54;11.00;;;8.27;;
14394;SDS011;7282;49.204;10.652;2023-02-28T10:08:29;20.90;;;10.80;;
14394;SDS011;7282;49.204;10.652;2023-02-28T10:10:55;15.00;;;9.53;;
14394;SDS011;7282;49.204;10.652;2023-02-28T10:13:32;12.40;;;8.53;;
14394;SDS011;7282;49.204;10.652;2023-02-28T10:18:46;11.73;;;8.43;;
14394;SDS011;7282;49.204;10.652;2023-02-28T10:21:04;12.50;;;9.17;;
14394;SDS011;7282;49.204;10.652;2023-02-28T10:23:32;13.33;;;8.70;;
14394;SDS011;7282;49.204;10.652;2023-02-28T10:26:01;12.67;;;8.83;;
14394;SDS011;7282;49.204;10.652;2023-02-28T10:28:28;13.93;;;8.37;;
14394;SDS011;7282;49.204;10.652;2023-02-28T10:30:56;9.40;;;8.20;;
14394;SDS011;7282;49.204;10.652;2023-02-28T10:33:25;10.83;;;8.60;;
14394;SDS011;7282;49.204;10.652;2023-02-28T10:35:53;12.53;;;10.43;;
14394;SDS011;7282;49.204;10.652;2023-02-28T10:38:23;12.77;;;8.47;;
14394;SDS011;7282;49.204;10.652;2023-02-28T10:40:50;12.77;;;8.87;;
14394;SDS011;7282;49.204;10.652;2023-02-28T10:43:18;10.57;;;8.70;;
14394;SDS011;7282;49.204;10.652;2023-02-28T10:45:58;10.00;;;8.23;;
14394;SDS011;7282;49.204;10.652;2023-02-28T10:48:27;17.57;;;9.17;;
14394;SDS011;7282;49.204;10.652;2023-02-28T10:50:54;12.63;;;8.20;;
14394;SDS011;7282;49.204;10.652;2023-02-28T10:58:58;12.17;;;8.13;;
14394;SDS011;7282;49.204;10.652;2023-02-28T11:04:01;14.80;;;8.90;;
14394;SDS011;7282;49.204;10.652;2023-02-28T11:06:32;10.37;;;8.47;;
14394;SDS011;7282;49.204;10.652;2023-02-28T11:09:00;9.70;;;8.73;;
14394;SDS011;7282;49.204;10.652;2023-02-28T11:11:28;12.13;;;8.97;;
14394;SDS011;7282;49.204;10.652;2023-02-28T11:13:56;11.27;;;8.37;;
14394;SDS011;7282;49.204;10.652;2023-02-28T11:16:31;10.67;;;8.83;;
14394;SDS011;7282;49.204;10.652;2023-02-28T11:18:52;12.17;;;9.00;;
14394;SDS011;7282;49.204;10.652;2023-02-28T11:21:29;10.07;;;8.37;;
14394;SDS011;7282;49.204;10.652;2023-02-28T11:24:12;10.73;;;8.40;;
14394;SDS011;7282;49.204;10.652;2023-02-28T11:26:44;10.97;;;8.97;;
14394;SDS011;7282;49.204;10.652;2023-02-28T11:29:27;11.13;;;9.30;;
14394;SDS011;7282;49.204;10.652;2023-02-28T11:32:04;9.23;;;8.23;;
14394;SDS011;7282;49.204;10.652;2023-02-28T11:34:28;12.00;;;8.63;;
14394;SDS011;7282;49.204;10.652;2023-02-28T11:36:56;13.23;;;9.10;;
14394;SDS011;7282;49.204;10.652;2023-02-28T11:39:23;15.40;;;10.67;;
14394;SDS011;7282;49.204;10.652;2023-02-28T11:42:11;11.63;;;8.80;;
14394;SDS011;7282;49.204;10.652;2023-02-28T11:47:28;13.67;;;9.50;;
14394;SDS011;7282;49.204;10.652;2023-02-28T11:52:33;12.73;;;8.93;;
14394;SDS011;7282;49.204;10.652;2023-02-28T11:55:14;10.13;;;8.83;;
14394;SDS011;7282;49.204;10.652;2023-02-28T11:57:52;10.83;;;8.90;;
14394;SDS011;7282;49.204;10.652;2023-02-28T12:05:38;10.23;;;9.17;;
14394;SDS011;7282;49.204;10.652;2023-02-28T12:08:11;9.73;;;8.73;;
14394;SDS011;7282;49.204;10.652;2023-02-28T12:10:37;18.07;;;10.20;;
14394;SDS011;7282;49.204;10.652;2023-02-28T12:13:24;12.20;;;9.00;;
14394;SDS011;7282;49.204;10.652;2023-02-28T12:16:05;10.40;;;9.30;;
14394;SDS011;7282;49.204;10.652;2023-02-28T12:21:29;21.73;;;10.60;;
14394;SDS011;7282;49.204;10.652;2023-02-28T12:24:00;12.83;;;9.17;;
14394;SDS011;7282;49.204;10.652;2023-02-28T12:26:33;10.67;;;8.83;;
14394;SDS011;7282;49.204;10.652;2023-02-28T12:29:02;10.73;;;9.13;;
14394;SDS011;7282;49.204;10.652;2023-02-28T12:31:29;9.90;;;8.90;;
14394;SDS011;7282;49.204;10.652;2023-02-28T12:33:59;11.03;;;8.33;;
14394;SDS011;7282;49.204;10.652;2023-02-28T12:36:25;19.53;;;10.10;;
14394;SDS011;7282;49.204;10.652;2023-02-28T12:39:11;12.60;;;9.23;;
14394;SDS011;7282;49.204;10.652;2023-02-28T12:41:42;10.47;;;9.00;;
14394;SDS011;7282;49.204;10.652;2023-02-28T12:44:11;21.47;;;10.40;;
14394;SDS011;7282;49.204;10.652;2023-02-28T12:46:44;11.87;;;8.90;;
14394;SDS011;7282;49.204;10.652;2023-02-28T12:49:15;12.67;;;9.20;;
14394;SDS011;7282;49.204;10.652;2023-02-28T12:51:38;11.13;;;8.90;;
14394;SDS011;7282;49.204;10.652;2023-02-28T12:59:17;11.03;;;9.23;;
14394;SDS011;7282;49.204;10.652;2023-02-28T13:01:39;10.50;;;9.23;;
14394;SDS011;7282;49.204;10.652;2023-02-28T13:06:42;20.30;;;10.23;;
14394;SDS011;7282;49.204;10.652;2023-02-28T13:09:08;15.80;;;10.57;;
14394;SDS011;7282;49.204;10.652;2023-02-28T13:11:43;13.03;;;9.37;;
14394;SDS011;7282;49.204;10.652;2023-02-28T13:14:19;12.60;;;8.90;;
14394;SDS011;7282;49.204;10.652;2023-02-28T13:16:58;16.60;;;9.47;;
14394;SDS011;7282;49.204;10.652;2023-02-28T13:19:26;10.83;;;8.13;;
14394;SDS011;7282;49.204;10.652;2023-02-28T13:21:54;12.67;;;9.33;;
14394;SDS011;7282;49.204;10.652;2023-02-28T13:29:43;10.00;;;9.00;;
14394;SDS011;7282;49.204;10.652;2023-02-28T13:34:37;11.47;;;8.07;;
14394;SDS011;7282;49.204;10.652;2023-02-28T13:40:24;9.07;;;8.27;;
14394;SDS011;7282;49.204;10.652;2023-02-28T13:43:09;11.93;;;8.47;;
14394;SDS011;7282;49.204;10.652;2023-02-28T13:47:33;11.70;;;8.80;;
14394;SDS011;7282;49.204;10.652;2023-02-28T14:03:53;10.60;;;9.47;;
14394;SDS011;7282;49.204;10.652;2023-02-28T14:06:26;11.43;;;8.93;;
14394;SDS011;7282;49.204;10.652;2023-02-28T14:08:55;10.07;;;8.37;;
14394;SDS011;7282;49.204;10.652;2023-02-28T14:11:32;15.87;;;9.07;;
14394;SDS011;7282;49.204;10.652;2023-02-28T14:14:00;52.50;;;14.17;;
14394;SDS011;7282;49.204;10.652;2023-02-28T14:16:40;14.03;;;9.83;;
14394;SDS011;7282;49.204;10.652;2023-02-28T14:21:43;10.60;;;9.50;;
14394;SDS011;7282;49.204;10.652;2023-02-28T14:27:05;10.80;;;9.03;;
14394;SDS011;7282;49.204;10.652;2023-02-28T14:32:10;15.37;;;10.10;;
14394;SDS011;7282;49.204;10.652;2023-02-28T14:34:32;10.10;;;8.80;;
14394;SDS011;7282;49.204;10.652;2023-02-28T14:37:00;10.87;;;9.47;;
14394;SDS011;7282;49.204;10.652;2023-02-28T14:39:27;13.87;;;9.27;;
14394;SDS011;7282;49.204;10.652;2023-02-28T14:41:56;10.30;;;9.20;;
14394;SDS011;7282;49.204;10.652;2023-02-28T14:44:26;10.77;;;9.57;;
14394;SDS011;7282;49.204;10.652;2023-02-28T14:46:53;10.97;;;9.87;;
14394;SDS011;7282;49.204;10.652;2023-02-28T14:49:23;12.33;;;9.77;;
14394;SDS011;7282;49.204;10.652;2023-02-28T14:51:49;10.17;;;9.00;;
14394;SDS011;7282;49.204;10.652;2023-02-28T14:54:18;10.63;;;9.23;;
14394;SDS011;7282;49.204;10.652;2023-02-28T14:56:48;13.80;;;10.93;;
14394;SDS011;7282;49.204;10.652;2023-02-28T14:59:34;13.07;;;10.27;;
14394;SDS011;7282;49.204;10.652;2023-02-28T15:01:46;13.87;;;10.33;;
14394;SDS011;7282;49.204;10.652;2023-02-28T15:04:22;11.37;;;9.57;;
14394;SDS011;7282;49.204;10.652;2023-02-28T15:06:41;10.50;;;9.40;;
14394;SDS011;7282;49.204;10.652;2023-02-28T15:09:14;11.20;;;9.97;;
14394;SDS011;7282;49.204;10.652;2023-02-28T15:11:36;10.50;;;9.37;;
14394;SDS011;7282;49.204;10.652;2023-02-28T15:14:03;10.60;;;9.10;;
14394;SDS011;7282;49.204;10.652;2023-02-28T15:21:31;22.33;;;11.83;;
14394;SDS011;7282;49.204;10.652;2023-02-28T15:24:42;12.47;;;9.90;;
14394;SDS011;7282;49.204;10.652;2023-02-28T15:26:32;13.90;;;9.50;;
14394;SDS011;7282;49.204;10.652;2023-02-28T15:29:00;10.53;;;8.73;;
14394;SDS011;7282;49.204;10.652;2023-02-28T15:31:28;11.00;;;9.53;;
14394;SDS011;7282;49.204;10.652;2023-02-28T15:33:56;13.73;;;9.50;;
14394;SDS011;7282;49.204;10.652;2023-02-28T15:36:25;10.30;;;9.17;;
14394;SDS011;7282;49.204;10.652;2023-02-28T15:38:53;11.07;;;9.10;;
14394;SDS011;7282;49.204;10.652;2023-02-28T15:41:30;10.90;;;9.77;;
14394;SDS011;7282;49.204;10.652;2023-02-28T15:46:54;9.77;;;8.77;;
14394;SDS011;7282;49.204;10.652;2023-02-28T15:49:18;12.13;;;10.07;;
14394;SDS011;7282;49.204;10.652;2023-02-28T15:51:45;11.57;;;9.13;;
14394;SDS011;7282;49.204;10.652;2023-02-28T15:54:14;11.50;;;9.70;;
14394;SDS011;7282;49.204;10.652;2023-02-28T15:56:45;12.67;;;9.40;;
14394;SDS011;7282;49.204;10.652;2023-02-28T15:59:14;12.83;;;10.00;;
14394;SDS011;7282;49.204;10.652;2023-02-28T16:01:41;12.33;;;9.90;;
14394;SDS011;7282;49.204;10.652;2023-02-28T16:04:15;17.27;;;9.97;;
14394;SDS011;7282;49.204;10.652;2023-02-28T16:06:46;11.47;;;9.77;;
14394;SDS011;7282;49.204;10.652;2023-02-28T16:09:14;12.47;;;9.93;;
14394;SDS011;7282;49.204;10.652;2023-02-28T16:11:42;10.73;;;9.63;;
14394;SDS011;7282;49.204;10.652;2023-02-28T16:14:15;12.10;;;9.87;;
14394;SDS011;7282;49.204;10.652;2023-02-28T16:16:41;13.83;;;10.07;;
14394;SDS011;7282;49.204;10.652;2023-02-28T16:19:07;13.27;;;10.73;;
14394;SDS011;7282;49.204;10.652;2023-02-28T16:21:34;12.63;;;10.30;;
14394;SDS011;7282;49.204;10.652;2023-02-28T16:24:01;12.73;;;10.10;;